sensor_id;sensor_type;location;lat;lon;timestamp;P1;durP1;ratioP1;P2;durP2;ratioP2
61569;SDS011;47462;59.172;17.196;2024-02-23T00:01:26;30.20;;;14.77;;
61569;SDS011;47462;59.172;17.196;2024-02-23T00:03:51;35.15;;;15.07;;
61569;SDS011;47462;59.172;17.196;2024-02-23T00:06:17;32.88;;;15.18;;
61569;SDS011;47462;59.172;17.196;2024-02-23T00:08:43;27.45;;;15.25;;
61569;SDS011;47462;59.172;17.196;2024-02-23T00:11:08;31.77;;;16.52;;
61569;SDS011;47462;59.172;17.196;2024-02-23T00:13:34;33.78;;;14.40;;
61569;SDS011;47462;59.172;17.196;2024-02-23T00:16:01;25.50;;;13.90;;
61569;SDS011;47462;59.172;17.196;2024-02-23T00:18:26;29.08;;;14.77;;
61569;SDS011;47462;59.172;17.196;2024-02-23T00:20:52;30.83;;;13.65;;
61569;SDS011;47462;59.172;17.196;2024-02-23T00:23:17;30.73;;;15.33;;
61569;SDS011;47462;59.172;17.196;2024-02-23T00:25:44;24.42;;;13.77;;
61569;SDS011;47462;59.172;17.196;2024-02-23T00:28:10;27.10;;;15.00;;
61569;SDS011;47462;59.172;17.196;2024-02-23T00:30:35;29.52;;;14.23;;
61569;SDS011;47462;59.172;17.196;2024-02-23T00:33:01;25.02;;;13.25;;
61569;SDS011;47462;59.172;17.196;2024-02-23T00:35:26;27.63;;;14.30;;
61569;SDS011;47462;59.172;17.196;2024-02-23T00:37:52;27.83;;;14.53;;
61569;SDS011;47462;59.172;17.196;2024-02-23T00:40:17;31.20;;;15.77;;
61569;SDS011;47462;59.172;17.196;2024-02-23T00:42:42;29.57;;;15.97;;
61569;SDS011;47462;59.172;17.196;2024-02-23T00:45:08;34.53;;;16.10;;
61569;SDS011;47462;59.172;17.196;2024-02-23T00:47:33;34.50;;;17.13;;
61569;SDS011;47462;59.172;17.196;2024-02-23T00:50:00;32.08;;;16.75;;
61569;SDS011;47462;59.172;17.196;2024-02-23T00:52:26;36.95;;;17.98;;
61569;SDS011;47462;59.172;17.196;2024-02-23T00:54:52;37.72;;;17.80;;
61569;SDS011;47462;59.172;17.196;2024-02-23T00:57:17;36.40;;;17.73;;
61569;SDS011;47462;59.172;17.196;2024-02-23T00:59:46;35.47;;;18.02;;
61569;SDS011;47462;59.172;17.196;2024-02-23T01:02:12;33.92;;;18.50;;
61569;SDS011;47462;59.172;17.196;2024-02-23T01:04:37;33.77;;;18.20;;
61569;SDS011;47462;59.172;17.196;2024-02-23T01:07:03;34.43;;;18.20;;
61569;SDS011;47462;59.172;17.196;2024-02-23T01:09:28;35.38;;;18.52;;
61569;SDS011;47462;59.172;17.196;2024-02-23T01:11:53;40.63;;;20.40;;
61569;SDS011;47462;59.172;17.196;2024-02-23T01:14:19;41.80;;;20.17;;
61569;SDS011;47462;59.172;17.196;2024-02-23T01:16:44;41.58;;;20.55;;
61569;SDS011;47462;59.172;17.196;2024-02-23T01:19:10;37.23;;;19.60;;
61569;SDS011;47462;59.172;17.196;2024-02-23T01:21:35;42.72;;;20.92;;
61569;SDS011;47462;59.172;17.196;2024-02-23T01:24:01;47.83;;;22.38;;
61569;SDS011;47462;59.172;17.196;2024-02-23T01:26:26;35.75;;;19.38;;
61569;SDS011;47462;59.172;17.196;2024-02-23T01:28:52;44.42;;;20.75;;
61569;SDS011;47462;59.172;17.196;2024-02-23T01:31:18;49.92;;;20.73;;
61569;SDS011;47462;59.172;17.196;2024-02-23T01:33:44;53.67;;;25.50;;
61569;SDS011;47462;59.172;17.196;2024-02-23T01:36:09;63.28;;;25.33;;
61569;SDS011;47462;59.172;17.196;2024-02-23T01:38:35;50.53;;;22.87;;
61569;SDS011;47462;59.172;17.196;2024-02-23T01:41:01;52.63;;;24.80;;
61569;SDS011;47462;59.172;17.196;2024-02-23T01:43:26;44.80;;;22.42;;
61569;SDS011;47462;59.172;17.196;2024-02-23T01:45:52;49.88;;;21.92;;
61569;SDS011;47462;59.172;17.196;2024-02-23T01:50:44;49.00;;;23.17;;
61569;SDS011;47462;59.172;17.196;2024-02-23T01:53:10;49.40;;;22.67;;
61569;SDS011;47462;59.172;17.196;2024-02-23T01:55:37;50.80;;;23.95;;
61569;SDS011;47462;59.172;17.196;2024-02-23T01:58:06;51.63;;;25.13;;
61569;SDS011;47462;59.172;17.196;2024-02-23T02:00:32;47.97;;;23.10;;
61569;SDS011;47462;59.172;17.196;2024-02-23T02:02:59;45.55;;;22.42;;
61569;SDS011;47462;59.172;17.196;2024-02-23T02:05:25;47.40;;;23.63;;
61569;SDS011;47462;59.172;17.196;2024-02-23T02:07:51;41.30;;;21.08;;
61569;SDS011;47462;59.172;17.196;2024-02-23T02:10:19;41.42;;;19.70;;
61569;SDS011;47462;59.172;17.196;2024-02-23T02:12:45;37.28;;;20.17;;
61569;SDS011;47462;59.172;17.196;2024-02-23T02:15:10;34.95;;;20.42;;
61569;SDS011;47462;59.172;17.196;2024-02-23T02:17:36;36.00;;;19.80;;
61569;SDS011;47462;59.172;17.196;2024-02-23T02:20:02;39.33;;;19.80;;
61569;SDS011;47462;59.172;17.196;2024-02-23T02:22:34;40.28;;;19.63;;
61569;SDS011;47462;59.172;17.196;2024-02-23T02:25:00;39.58;;;20.08;;
61569;SDS011;47462;59.172;17.196;2024-02-23T02:27:25;37.92;;;19.90;;
61569;SDS011;47462;59.172;17.196;2024-02-23T02:29:51;40.55;;;19.83;;
61569;SDS011;47462;59.172;17.196;2024-02-23T02:32:17;40.08;;;19.52;;
61569;SDS011;47462;59.172;17.196;2024-02-23T02:34:43;30.42;;;17.38;;
61569;SDS011;47462;59.172;17.196;2024-02-23T02:37:08;35.28;;;17.48;;
61569;SDS011;47462;59.172;17.196;2024-02-23T02:39:34;29.75;;;17.67;;
61569;SDS011;47462;59.172;17.196;2024-02-23T02:42:00;26.48;;;15.40;;
61569;SDS011;47462;59.172;17.196;2024-02-23T02:44:25;26.57;;;15.27;;
61569;SDS011;47462;59.172;17.196;2024-02-23T02:46:55;24.00;;;14.18;;
61569;SDS011;47462;59.172;17.196;2024-02-23T02:51:46;26.45;;;13.85;;
61569;SDS011;47462;59.172;17.196;2024-02-23T02:54:12;24.17;;;13.32;;
61569;SDS011;47462;59.172;17.196;2024-02-23T02:56:42;24.13;;;12.10;;
61569;SDS011;47462;59.172;17.196;2024-02-23T02:59:08;22.42;;;12.43;;
61569;SDS011;47462;59.172;17.196;2024-02-23T03:01:33;17.17;;;10.50;;
61569;SDS011;47462;59.172;17.196;2024-02-23T03:03:59;13.88;;;9.13;;
61569;SDS011;47462;59.172;17.196;2024-02-23T03:06:25;19.50;;;10.63;;
61569;SDS011;47462;59.172;17.196;2024-02-23T03:08:50;14.18;;;9.15;;
61569;SDS011;47462;59.172;17.196;2024-02-23T03:11:16;13.98;;;8.70;;
61569;SDS011;47462;59.172;17.196;2024-02-23T03:13:41;12.98;;;8.75;;
61569;SDS011;47462;59.172;17.196;2024-02-23T03:16:14;14.47;;;9.23;;
61569;SDS011;47462;59.172;17.196;2024-02-23T03:18:42;15.50;;;10.02;;
61569;SDS011;47462;59.172;17.196;2024-02-23T03:21:08;18.15;;;11.20;;
61569;SDS011;47462;59.172;17.196;2024-02-23T03:23:35;23.45;;;12.40;;
61569;SDS011;47462;59.172;17.196;2024-02-23T03:26:01;26.58;;;13.88;;
61569;SDS011;47462;59.172;17.196;2024-02-23T03:28:27;25.67;;;14.50;;
61569;SDS011;47462;59.172;17.196;2024-02-23T03:30:53;25.38;;;14.65;;
61569;SDS011;47462;59.172;17.196;2024-02-23T03:33:19;24.90;;;14.10;;
61569;SDS011;47462;59.172;17.196;2024-02-23T03:35:44;25.73;;;14.15;;
61569;SDS011;47462;59.172;17.196;2024-02-23T03:38:10;31.45;;;15.88;;
61569;SDS011;47462;59.172;17.196;2024-02-23T03:40:36;30.05;;;15.48;;
61569;SDS011;47462;59.172;17.196;2024-02-23T03:43:04;31.73;;;16.67;;
61569;SDS011;47462;59.172;17.196;2024-02-23T03:45:31;30.38;;;15.65;;
61569;SDS011;47462;59.172;17.196;2024-02-23T03:47:56;38.58;;;17.13;;
61569;SDS011;47462;59.172;17.196;2024-02-23T03:50:22;30.58;;;16.02;;
61569;SDS011;47462;59.172;17.196;2024-02-23T03:52:47;30.80;;;16.20;;
61569;SDS011;47462;59.172;17.196;2024-02-23T03:55:13;29.45;;;14.77;;
61569;SDS011;47462;59.172;17.196;2024-02-23T03:57:38;24.13;;;14.77;;
61569;SDS011;47462;59.172;17.196;2024-02-23T04:00:04;22.90;;;12.73;;
61569;SDS011;47462;59.172;17.196;2024-02-23T04:02:31;22.20;;;12.13;;
61569;SDS011;47462;59.172;17.196;2024-02-23T04:04:56;22.75;;;12.05;;
61569;SDS011;47462;59.172;17.196;2024-02-23T04:07:22;23.40;;;11.50;;
61569;SDS011;47462;59.172;17.196;2024-02-23T04:09:47;21.50;;;11.53;;
61569;SDS011;47462;59.172;17.196;2024-02-23T04:12:20;22.55;;;12.02;;
61569;SDS011;47462;59.172;17.196;2024-02-23T04:14:46;20.77;;;11.05;;
61569;SDS011;47462;59.172;17.196;2024-02-23T04:17:12;22.98;;;12.02;;
61569;SDS011;47462;59.172;17.196;2024-02-23T04:19:40;20.08;;;10.55;;
61569;SDS011;47462;59.172;17.196;2024-02-23T04:22:06;17.23;;;9.77;;
61569;SDS011;47462;59.172;17.196;2024-02-23T04:24:34;20.77;;;11.02;;
61569;SDS011;47462;59.172;17.196;2024-02-23T04:27:04;17.98;;;9.85;;
61569;SDS011;47462;59.172;17.196;2024-02-23T04:29:30;16.67;;;8.85;;
61569;SDS011;47462;59.172;17.196;2024-02-23T04:31:57;15.82;;;10.05;;
61569;SDS011;47462;59.172;17.196;2024-02-23T04:34:24;16.55;;;8.70;;
61569;SDS011;47462;59.172;17.196;2024-02-23T04:36:49;13.23;;;7.57;;
61569;SDS011;47462;59.172;17.196;2024-02-23T04:39:15;15.25;;;8.45;;
61569;SDS011;47462;59.172;17.196;2024-02-23T04:41:40;15.13;;;8.07;;
61569;SDS011;47462;59.172;17.196;2024-02-23T04:44:06;13.87;;;8.17;;
61569;SDS011;47462;59.172;17.196;2024-02-23T04:46:31;12.37;;;7.77;;
61569;SDS011;47462;59.172;17.196;2024-02-23T04:48:57;13.13;;;7.53;;
61569;SDS011;47462;59.172;17.196;2024-02-23T04:51:22;17.17;;;8.90;;
61569;SDS011;47462;59.172;17.196;2024-02-23T04:53:48;18.05;;;9.48;;
61569;SDS011;47462;59.172;17.196;2024-02-23T04:58:39;17.55;;;10.85;;
61569;SDS011;47462;59.172;17.196;2024-02-23T05:01:06;27.75;;;12.48;;
61569;SDS011;47462;59.172;17.196;2024-02-23T05:03:31;26.20;;;12.48;;
61569;SDS011;47462;59.172;17.196;2024-02-23T05:05:57;26.80;;;12.83;;
61569;SDS011;47462;59.172;17.196;2024-02-23T05:08:23;28.70;;;13.60;;
61569;SDS011;47462;59.172;17.196;2024-02-23T05:10:49;31.15;;;13.00;;
61569;SDS011;47462;59.172;17.196;2024-02-23T05:13:18;28.27;;;13.30;;
61569;SDS011;47462;59.172;17.196;2024-02-23T05:15:43;39.83;;;13.85;;
61569;SDS011;47462;59.172;17.196;2024-02-23T05:18:08;26.73;;;12.75;;
61569;SDS011;47462;59.172;17.196;2024-02-23T05:20:34;42.73;;;13.80;;
61569;SDS011;47462;59.172;17.196;2024-02-23T05:22:59;22.00;;;12.33;;
61569;SDS011;47462;59.172;17.196;2024-02-23T05:25:25;26.88;;;12.13;;
61569;SDS011;47462;59.172;17.196;2024-02-23T05:30:17;21.67;;;11.52;;
61569;SDS011;47462;59.172;17.196;2024-02-23T05:32:42;18.67;;;9.77;;
61569;SDS011;47462;59.172;17.196;2024-02-23T05:35:09;17.37;;;10.17;;
61569;SDS011;47462;59.172;17.196;2024-02-23T05:37:35;19.98;;;10.15;;
61569;SDS011;47462;59.172;17.196;2024-02-23T05:40:00;19.65;;;10.02;;
61569;SDS011;47462;59.172;17.196;2024-02-23T05:42:29;21.50;;;10.57;;
61569;SDS011;47462;59.172;17.196;2024-02-23T05:44:54;22.15;;;10.20;;
61569;SDS011;47462;59.172;17.196;2024-02-23T05:47:20;19.13;;;10.57;;
61569;SDS011;47462;59.172;17.196;2024-02-23T05:52:11;13.40;;;7.45;;
61569;SDS011;47462;59.172;17.196;2024-02-23T05:54:37;12.05;;;7.38;;
61569;SDS011;47462;59.172;17.196;2024-02-23T05:57:02;12.43;;;7.20;;
61569;SDS011;47462;59.172;17.196;2024-02-23T05:59:28;10.27;;;6.13;;
61569;SDS011;47462;59.172;17.196;2024-02-23T06:01:54;11.95;;;6.75;;
61569;SDS011;47462;59.172;17.196;2024-02-23T06:04:22;8.60;;;5.63;;
61569;SDS011;47462;59.172;17.196;2024-02-23T06:06:48;8.23;;;5.07;;
61569;SDS011;47462;59.172;17.196;2024-02-23T06:09:13;7.17;;;5.10;;
61569;SDS011;47462;59.172;17.196;2024-02-23T06:11:39;9.25;;;5.13;;
61569;SDS011;47462;59.172;17.196;2024-02-23T06:14:05;9.52;;;5.20;;
61569;SDS011;47462;59.172;17.196;2024-02-23T06:16:30;7.22;;;4.45;;
61569;SDS011;47462;59.172;17.196;2024-02-23T06:18:57;8.20;;;5.47;;
61569;SDS011;47462;59.172;17.196;2024-02-23T06:23:48;10.25;;;5.93;;
61569;SDS011;47462;59.172;17.196;2024-02-23T06:26:14;11.18;;;6.82;;
61569;SDS011;47462;59.172;17.196;2024-02-23T06:28:40;13.32;;;7.25;;
61569;SDS011;47462;59.172;17.196;2024-02-23T06:31:08;11.25;;;6.97;;
61569;SDS011;47462;59.172;17.196;2024-02-23T06:36:00;11.10;;;6.90;;
61569;SDS011;47462;59.172;17.196;2024-02-23T06:38:26;12.23;;;7.57;;
61569;SDS011;47462;59.172;17.196;2024-02-23T06:40:52;10.77;;;7.43;;
61569;SDS011;47462;59.172;17.196;2024-02-23T06:43:18;13.48;;;7.47;;
61569;SDS011;47462;59.172;17.196;2024-02-23T06:48:09;13.32;;;7.82;;
61569;SDS011;47462;59.172;17.196;2024-02-23T06:50:35;13.38;;;8.02;;
61569;SDS011;47462;59.172;17.196;2024-02-23T06:53:01;15.98;;;8.98;;
61569;SDS011;47462;59.172;17.196;2024-02-23T06:55:27;15.00;;;9.20;;
61569;SDS011;47462;59.172;17.196;2024-02-23T07:00:19;16.30;;;9.27;;
61569;SDS011;47462;59.172;17.196;2024-02-23T07:02:46;15.85;;;10.02;;
61569;SDS011;47462;59.172;17.196;2024-02-23T07:05:12;19.10;;;11.13;;
61569;SDS011;47462;59.172;17.196;2024-02-23T07:07:39;15.43;;;10.50;;
61569;SDS011;47462;59.172;17.196;2024-02-23T07:10:05;17.33;;;10.80;;
61569;SDS011;47462;59.172;17.196;2024-02-23T07:12:31;16.90;;;10.50;;
61569;SDS011;47462;59.172;17.196;2024-02-23T07:14:57;16.17;;;10.27;;
61569;SDS011;47462;59.172;17.196;2024-02-23T07:17:23;15.57;;;10.40;;
61569;SDS011;47462;59.172;17.196;2024-02-23T07:19:49;17.02;;;9.80;;
61569;SDS011;47462;59.172;17.196;2024-02-23T07:22:16;13.38;;;9.77;;
61569;SDS011;47462;59.172;17.196;2024-02-23T07:24:43;15.82;;;9.23;;
61569;SDS011;47462;59.172;17.196;2024-02-23T07:27:09;12.02;;;8.10;;
61569;SDS011;47462;59.172;17.196;2024-02-23T07:29:35;12.35;;;8.70;;
61569;SDS011;47462;59.172;17.196;2024-02-23T07:32:00;17.08;;;9.18;;
61569;SDS011;47462;59.172;17.196;2024-02-23T07:36:52;11.93;;;8.60;;
61569;SDS011;47462;59.172;17.196;2024-02-23T07:39:18;15.00;;;8.50;;
61569;SDS011;47462;59.172;17.196;2024-02-23T07:41:44;11.23;;;8.10;;
61569;SDS011;47462;59.172;17.196;2024-02-23T07:44:10;12.52;;;8.88;;
61569;SDS011;47462;59.172;17.196;2024-02-23T07:46:35;11.73;;;8.32;;
61569;SDS011;47462;59.172;17.196;2024-02-23T07:49:00;12.03;;;8.53;;
61569;SDS011;47462;59.172;17.196;2024-02-23T07:51:26;13.68;;;9.50;;
61569;SDS011;47462;59.172;17.196;2024-02-23T07:53:52;14.83;;;10.57;;
61569;SDS011;47462;59.172;17.196;2024-02-23T07:56:17;16.43;;;10.47;;
61569;SDS011;47462;59.172;17.196;2024-02-23T07:58:42;17.27;;;11.87;;
61569;SDS011;47462;59.172;17.196;2024-02-23T08:01:08;15.17;;;11.00;;
61569;SDS011;47462;59.172;17.196;2024-02-23T08:03:33;15.82;;;10.73;;
61569;SDS011;47462;59.172;17.196;2024-02-23T08:05:59;16.02;;;10.82;;
61569;SDS011;47462;59.172;17.196;2024-02-23T08:08:26;17.73;;;11.27;;
61569;SDS011;47462;59.172;17.196;2024-02-23T08:10:53;17.45;;;10.93;;
61569;SDS011;47462;59.172;17.196;2024-02-23T08:13:19;17.08;;;10.85;;
61569;SDS011;47462;59.172;17.196;2024-02-23T08:15:44;15.68;;;10.30;;
61569;SDS011;47462;59.172;17.196;2024-02-23T08:18:10;13.38;;;9.32;;
61569;SDS011;47462;59.172;17.196;2024-02-23T08:20:36;14.07;;;9.90;;
61569;SDS011;47462;59.172;17.196;2024-02-23T08:23:01;13.77;;;10.00;;
61569;SDS011;47462;59.172;17.196;2024-02-23T08:25:27;16.08;;;9.48;;
61569;SDS011;47462;59.172;17.196;2024-02-23T08:27:54;14.32;;;10.20;;
61569;SDS011;47462;59.172;17.196;2024-02-23T08:30:24;16.92;;;11.07;;
61569;SDS011;47462;59.172;17.196;2024-02-23T08:32:49;17.60;;;10.68;;
61569;SDS011;47462;59.172;17.196;2024-02-23T08:35:15;18.25;;;11.25;;
61569;SDS011;47462;59.172;17.196;2024-02-23T08:37:40;18.10;;;11.10;;
61569;SDS011;47462;59.172;17.196;2024-02-23T08:40:07;20.08;;;11.60;;
61569;SDS011;47462;59.172;17.196;2024-02-23T08:42:33;18.65;;;11.20;;
61569;SDS011;47462;59.172;17.196;2024-02-23T08:44:58;20.03;;;10.07;;
61569;SDS011;47462;59.172;17.196;2024-02-23T08:47:23;20.97;;;11.37;;
61569;SDS011;47462;59.172;17.196;2024-02-23T08:49:49;18.55;;;11.45;;
61569;SDS011;47462;59.172;17.196;2024-02-23T08:52:15;15.70;;;11.17;;
61569;SDS011;47462;59.172;17.196;2024-02-23T08:54:40;14.97;;;11.27;;
61569;SDS011;47462;59.172;17.196;2024-02-23T08:57:05;16.77;;;10.60;;
61569;SDS011;47462;59.172;17.196;2024-02-23T08:59:31;18.47;;;11.17;;
61569;SDS011;47462;59.172;17.196;2024-02-23T09:01:56;15.70;;;9.23;;
61569;SDS011;47462;59.172;17.196;2024-02-23T09:04:21;12.43;;;8.70;;
61569;SDS011;47462;59.172;17.196;2024-02-23T09:06:47;11.68;;;8.35;;
61569;SDS011;47462;59.172;17.196;2024-02-23T09:09:15;13.25;;;8.70;;
61569;SDS011;47462;59.172;17.196;2024-02-23T09:11:40;12.17;;;8.67;;
61569;SDS011;47462;59.172;17.196;2024-02-23T09:14:05;13.77;;;8.33;;
61569;SDS011;47462;59.172;17.196;2024-02-23T09:16:31;11.98;;;8.35;;
61569;SDS011;47462;59.172;17.196;2024-02-23T09:18:56;13.70;;;7.37;;
61569;SDS011;47462;59.172;17.196;2024-02-23T09:21:22;14.10;;;6.93;;
61569;SDS011;47462;59.172;17.196;2024-02-23T09:23:47;10.27;;;7.20;;
61569;SDS011;47462;59.172;17.196;2024-02-23T09:26:12;11.90;;;6.40;;
61569;SDS011;47462;59.172;17.196;2024-02-23T09:28:38;11.67;;;6.73;;
61569;SDS011;47462;59.172;17.196;2024-02-23T09:31:05;12.73;;;6.90;;
61569;SDS011;47462;59.172;17.196;2024-02-23T09:33:31;8.43;;;6.20;;
61569;SDS011;47462;59.172;17.196;2024-02-23T09:35:56;8.87;;;6.27;;
61569;SDS011;47462;59.172;17.196;2024-02-23T09:38:22;12.77;;;8.88;;
61569;SDS011;47462;59.172;17.196;2024-02-23T09:40:49;9.63;;;5.78;;
61569;SDS011;47462;59.172;17.196;2024-02-23T09:43:16;9.48;;;5.80;;
61569;SDS011;47462;59.172;17.196;2024-02-23T09:45:42;8.60;;;5.07;;
61569;SDS011;47462;59.172;17.196;2024-02-23T09:48:08;7.60;;;5.70;;
61569;SDS011;47462;59.172;17.196;2024-02-23T09:50:35;9.45;;;5.25;;
61569;SDS011;47462;59.172;17.196;2024-02-23T09:53:03;7.72;;;5.13;;
61569;SDS011;47462;59.172;17.196;2024-02-23T09:55:33;8.30;;;5.03;;
61569;SDS011;47462;59.172;17.196;2024-02-23T09:57:58;7.72;;;4.45;;
61569;SDS011;47462;59.172;17.196;2024-02-23T10:00:24;6.78;;;4.32;;
61569;SDS011;47462;59.172;17.196;2024-02-23T10:02:50;6.35;;;3.97;;
61569;SDS011;47462;59.172;17.196;2024-02-23T10:05:16;4.57;;;3.20;;
61569;SDS011;47462;59.172;17.196;2024-02-23T10:07:42;6.43;;;3.45;;
61569;SDS011;47462;59.172;17.196;2024-02-23T10:10:09;6.13;;;3.78;;
61569;SDS011;47462;59.172;17.196;2024-02-23T10:12:36;6.13;;;3.03;;
61569;SDS011;47462;59.172;17.196;2024-02-23T10:15:02;7.00;;;3.50;;
61569;SDS011;47462;59.172;17.196;2024-02-23T10:17:29;5.93;;;3.13;;
61569;SDS011;47462;59.172;17.196;2024-02-23T10:19:55;5.70;;;2.97;;
61569;SDS011;47462;59.172;17.196;2024-02-23T10:22:22;6.68;;;3.10;;
61569;SDS011;47462;59.172;17.196;2024-02-23T10:24:50;4.80;;;3.40;;
61569;SDS011;47462;59.172;17.196;2024-02-23T10:29:41;5.30;;;3.10;;
61569;SDS011;47462;59.172;17.196;2024-02-23T10:32:06;2.17;;;1.83;;
61569;SDS011;47462;59.172;17.196;2024-02-23T10:34:35;3.45;;;1.88;;
61569;SDS011;47462;59.172;17.196;2024-02-23T10:37:04;4.18;;;2.00;;
61569;SDS011;47462;59.172;17.196;2024-02-23T10:39:31;3.58;;;1.50;;
61569;SDS011;47462;59.172;17.196;2024-02-23T10:42:02;3.17;;;1.50;;
61569;SDS011;47462;59.172;17.196;2024-02-23T10:44:29;5.38;;;1.20;;
61569;SDS011;47462;59.172;17.196;2024-02-23T10:46:55;4.82;;;1.20;;
61569;SDS011;47462;59.172;17.196;2024-02-23T10:49:23;1.92;;;1.08;;
61569;SDS011;47462;59.172;17.196;2024-02-23T10:51:52;1.55;;;1.10;;
61569;SDS011;47462;59.172;17.196;2024-02-23T10:54:19;1.75;;;0.90;;
61569;SDS011;47462;59.172;17.196;2024-02-23T10:56:46;2.55;;;0.98;;
61569;SDS011;47462;59.172;17.196;2024-02-23T10:59:15;2.65;;;1.00;;
61569;SDS011;47462;59.172;17.196;2024-02-23T11:01:45;2.53;;;1.08;;
61569;SDS011;47462;59.172;17.196;2024-02-23T11:04:14;3.28;;;1.15;;
61569;SDS011;47462;59.172;17.196;2024-02-23T11:06:41;1.30;;;0.75;;
61569;SDS011;47462;59.172;17.196;2024-02-23T11:09:07;1.30;;;0.77;;
61569;SDS011;47462;59.172;17.196;2024-02-23T11:11:34;2.55;;;0.93;;
61569;SDS011;47462;59.172;17.196;2024-02-23T11:14:02;1.90;;;0.95;;
61569;SDS011;47462;59.172;17.196;2024-02-23T11:16:32;1.75;;;0.55;;
61569;SDS011;47462;59.172;17.196;2024-02-23T11:19:05;4.38;;;0.80;;
61569;SDS011;47462;59.172;17.196;2024-02-23T11:21:35;2.17;;;0.60;;
61569;SDS011;47462;59.172;17.196;2024-02-23T11:24:04;2.33;;;0.63;;
61569;SDS011;47462;59.172;17.196;2024-02-23T11:26:30;1.42;;;0.63;;
61569;SDS011;47462;59.172;17.196;2024-02-23T11:28:58;3.25;;;0.63;;
61569;SDS011;47462;59.172;17.196;2024-02-23T11:31:34;0.93;;;0.40;;
61569;SDS011;47462;59.172;17.196;2024-02-23T11:33:59;3.15;;;0.75;;
61569;SDS011;47462;59.172;17.196;2024-02-23T11:36:34;1.90;;;0.30;;
61569;SDS011;47462;59.172;17.196;2024-02-23T11:39:01;1.73;;;0.40;;
61569;SDS011;47462;59.172;17.196;2024-02-23T11:41:29;5.28;;;0.57;;
61569;SDS011;47462;59.172;17.196;2024-02-23T11:43:55;2.67;;;0.63;;
61569;SDS011;47462;59.172;17.196;2024-02-23T11:46:21;2.95;;;0.73;;
61569;SDS011;47462;59.172;17.196;2024-02-23T11:48:48;5.82;;;0.70;;
61569;SDS011;47462;59.172;17.196;2024-02-23T11:51:20;4.95;;;0.90;;
61569;SDS011;47462;59.172;17.196;2024-02-23T11:53:47;5.78;;;0.73;;
61569;SDS011;47462;59.172;17.196;2024-02-23T11:56:13;2.92;;;1.00;;
61569;SDS011;47462;59.172;17.196;2024-02-23T11:58:39;3.75;;;0.60;;
61569;SDS011;47462;59.172;17.196;2024-02-23T12:01:06;3.10;;;1.27;;
61569;SDS011;47462;59.172;17.196;2024-02-23T12:03:32;4.32;;;0.52;;
61569;SDS011;47462;59.172;17.196;2024-02-23T12:05:58;4.65;;;0.70;;
61569;SDS011;47462;59.172;17.196;2024-02-23T12:08:25;4.05;;;0.90;;
61569;SDS011;47462;59.172;17.196;2024-02-23T12:10:55;4.15;;;0.70;;
61569;SDS011;47462;59.172;17.196;2024-02-23T12:13:21;3.85;;;0.57;;
61569;SDS011;47462;59.172;17.196;2024-02-23T12:15:48;4.15;;;0.63;;
61569;SDS011;47462;59.172;17.196;2024-02-23T12:18:17;5.07;;;0.65;;
61569;SDS011;47462;59.172;17.196;2024-02-23T12:20:48;6.25;;;0.80;;
61569;SDS011;47462;59.172;17.196;2024-02-23T12:23:15;3.85;;;0.63;;
61569;SDS011;47462;59.172;17.196;2024-02-23T12:25:41;4.10;;;0.70;;
61569;SDS011;47462;59.172;17.196;2024-02-23T12:28:18;5.97;;;0.60;;
61569;SDS011;47462;59.172;17.196;2024-02-23T12:30:44;5.07;;;0.63;;
61569;SDS011;47462;59.172;17.196;2024-02-23T12:33:12;2.90;;;1.00;;
61569;SDS011;47462;59.172;17.196;2024-02-23T12:35:41;2.60;;;0.65;;
61569;SDS011;47462;59.172;17.196;2024-02-23T12:38:07;7.05;;;1.85;;
61569;SDS011;47462;59.172;17.196;2024-02-23T12:40:32;6.20;;;1.15;;
61569;SDS011;47462;59.172;17.196;2024-02-23T12:42:58;3.67;;;0.80;;
61569;SDS011;47462;59.172;17.196;2024-02-23T12:45:29;6.22;;;0.90;;
61569;SDS011;47462;59.172;17.196;2024-02-23T12:47:55;6.00;;;0.82;;
61569;SDS011;47462;59.172;17.196;2024-02-23T12:52:46;7.20;;;1.17;;
61569;SDS011;47462;59.172;17.196;2024-02-23T12:57:38;6.25;;;0.90;;
61569;SDS011;47462;59.172;17.196;2024-02-23T13:00:04;5.43;;;0.80;;
61569;SDS011;47462;59.172;17.196;2024-02-23T13:02:30;6.97;;;1.13;;
61569;SDS011;47462;59.172;17.196;2024-02-23T13:04:56;6.77;;;1.00;;
61569;SDS011;47462;59.172;17.196;2024-02-23T13:07:22;4.10;;;0.98;;
61569;SDS011;47462;59.172;17.196;2024-02-23T13:09:47;11.20;;;0.70;;
61569;SDS011;47462;59.172;17.196;2024-02-23T13:12:13;5.90;;;1.00;;
61569;SDS011;47462;59.172;17.196;2024-02-23T13:14:39;3.95;;;1.40;;
61569;SDS011;47462;59.172;17.196;2024-02-23T13:17:05;6.78;;;1.08;;
61569;SDS011;47462;59.172;17.196;2024-02-23T13:19:36;3.30;;;1.08;;
61569;SDS011;47462;59.172;17.196;2024-02-23T13:22:02;4.53;;;0.90;;
61569;SDS011;47462;59.172;17.196;2024-02-23T13:24:28;6.10;;;0.73;;
61569;SDS011;47462;59.172;17.196;2024-02-23T13:26:53;3.70;;;1.02;;
61569;SDS011;47462;59.172;17.196;2024-02-23T13:29:20;8.20;;;2.05;;
61569;SDS011;47462;59.172;17.196;2024-02-23T13:31:45;3.72;;;1.05;;
61569;SDS011;47462;59.172;17.196;2024-02-23T13:34:11;4.82;;;0.73;;
61569;SDS011;47462;59.172;17.196;2024-02-23T13:36:37;5.50;;;1.17;;
61569;SDS011;47462;59.172;17.196;2024-02-23T13:39:04;7.47;;;1.50;;
61569;SDS011;47462;59.172;17.196;2024-02-23T13:41:29;4.32;;;1.00;;
61569;SDS011;47462;59.172;17.196;2024-02-23T13:43:54;2.47;;;0.83;;
61569;SDS011;47462;59.172;17.196;2024-02-23T13:46:20;7.30;;;1.05;;
61569;SDS011;47462;59.172;17.196;2024-02-23T13:48:45;4.93;;;1.00;;
61569;SDS011;47462;59.172;17.196;2024-02-23T13:51:11;8.33;;;0.73;;
61569;SDS011;47462;59.172;17.196;2024-02-23T13:53:36;5.00;;;0.85;;
61569;SDS011;47462;59.172;17.196;2024-02-23T13:56:02;8.60;;;1.10;;
61569;SDS011;47462;59.172;17.196;2024-02-23T14:00:54;5.50;;;0.90;;
61569;SDS011;47462;59.172;17.196;2024-02-23T14:03:21;6.85;;;1.27;;
61569;SDS011;47462;59.172;17.196;2024-02-23T14:05:48;6.88;;;1.13;;
61569;SDS011;47462;59.172;17.196;2024-02-23T14:08:14;6.22;;;1.50;;
61569;SDS011;47462;59.172;17.196;2024-02-23T14:10:40;7.57;;;1.60;;
61569;SDS011;47462;59.172;17.196;2024-02-23T14:13:07;9.20;;;1.05;;
61569;SDS011;47462;59.172;17.196;2024-02-23T14:15:33;7.00;;;1.30;;
61569;SDS011;47462;59.172;17.196;2024-02-23T14:17:59;7.35;;;1.15;;
61569;SDS011;47462;59.172;17.196;2024-02-23T14:20:24;7.88;;;0.93;;
61569;SDS011;47462;59.172;17.196;2024-02-23T14:22:50;5.28;;;0.80;;
61569;SDS011;47462;59.172;17.196;2024-02-23T14:25:20;7.97;;;1.20;;
61569;SDS011;47462;59.172;17.196;2024-02-23T14:27:46;4.53;;;0.90;;
61569;SDS011;47462;59.172;17.196;2024-02-23T14:30:13;6.95;;;1.27;;
61569;SDS011;47462;59.172;17.196;2024-02-23T14:32:39;3.70;;;1.00;;
61569;SDS011;47462;59.172;17.196;2024-02-23T14:35:07;5.10;;;0.98;;
61569;SDS011;47462;59.172;17.196;2024-02-23T14:37:32;2.92;;;0.68;;
61569;SDS011;47462;59.172;17.196;2024-02-23T14:39:58;6.73;;;1.00;;
61569;SDS011;47462;59.172;17.196;2024-02-23T14:42:23;12.97;;;1.50;;
61569;SDS011;47462;59.172;17.196;2024-02-23T14:44:48;6.75;;;1.17;;
61569;SDS011;47462;59.172;17.196;2024-02-23T14:47:15;7.05;;;1.10;;
61569;SDS011;47462;59.172;17.196;2024-02-23T14:49:41;5.53;;;1.20;;